WetterOnline ( https://www.wetteronline.de )

Wetter aktuell Ahaus

Aktuelles Wetter: Ahaus (46m)

6-stündlich | Neueste Meldungen
Ortszeit Temperatur Wetter
Do, 18.04. 2:00 4.1° C Sprühregen
Mi, 17.04. 20:00 5.7° C bewölkt
Mi, 17.04. 14:00 7.6° C leichter Regen
Mi, 17.04. 8:00 4.2° C Sprühregen
Mi, 17.04. 2:00 4.2° C fast wolkenlos
Di, 16.04. 20:00 8.7° C bewölkt
Di, 16.04. 14:00 7.4° C bedeckt
Di, 16.04. 8:00 5.0° C leichter Regen
Ortszeit Temperatur Wetter
Do, 18.04. 3:00 4.2° C bedeckt
Do, 18.04. 2:50 4.2° C bedeckt
Do, 18.04. 2:40 4.2° C bewölkt
Do, 18.04. 2:30 4.2° C leichter Regen
Do, 18.04. 2:20 4.2° C leichter Regen
Do, 18.04. 2:10 4.2° C bewölkt
Do, 18.04. 2:00 4.1° C Sprühregen
Do, 18.04. 1:30 4.3° C leicht bewölkt
Do, 18.04. 1:00 4.8° C bedeckt
Do, 18.04. 0:30 4.6° C bewölkt
Do, 18.04. 0:00 4.6° C bewölkt
Ortszeit Relative Feuchte Sichtweite
Do, 18.04. 2:00 93% 35 km
Mi, 17.04. 20:00 80% 65 km
Mi, 17.04. 14:00 68% 55 km
Mi, 17.04. 8:00 95% 23 km
Mi, 17.04. 2:00 93% 26 km
Di, 16.04. 20:00 80% 60 km
Di, 16.04. 14:00 78% >70 km
Di, 16.04. 8:00 90% 14 km
Ortszeit Relative Feuchte Sichtweite
Do, 18.04. 3:00 95% 35 km
Do, 18.04. 2:50 95% -
Do, 18.04. 2:40 94% -
Do, 18.04. 2:30 93% 35 km
Do, 18.04. 2:20 93% -
Do, 18.04. 2:10 94% -
Do, 18.04. 2:00 93% 35 km
Do, 18.04. 1:30 91% 50 km
Do, 18.04. 1:00 89% 45 km
Do, 18.04. 0:30 95% 35 km
Do, 18.04. 0:00 94% 40 km
Ortszeit Niederschlagsmenge Niederschlagsart
Do, 18.04. 2:00 0.1 l/m2 in 6 Std. Regen
Mi, 17.04. 20:00 3 l/m2 in 12 Std. Regen
Mi, 17.04. 14:00 1 l/m2 in 6 Std. Regen
Mi, 17.04. 8:00 0.2 l/m2 in 12 Std. Regen
Mi, 17.04. 2:00 0.1 l/m2 in 6 Std. Regen
Di, 16.04. 20:00 8 l/m2 in 12 Std. Regen
Di, 16.04. 14:00 8 l/m2 in 6 Std. Regen
Di, 16.04. 8:00 5 l/m2 in 12 Std. Regen
Ortszeit Niederschlagsmenge Niederschlagsart
Do, 18.04. 3:00 <0.05 l/m2 in 1 Std. Regen
Do, 18.04. 2:50 keine Meldung -
Do, 18.04. 2:40 keine Meldung -
Do, 18.04. 2:30 <0.05 l/m2 in 30 Min -
Do, 18.04. 2:20 keine Meldung -
Do, 18.04. 2:10 keine Meldung -
Do, 18.04. 2:00 <0.05 l/m2 in 1 Std. Regen
Do, 18.04. 1:30 0.0 l/m2 in 30 Min -
Do, 18.04. 1:00 <0.05 l/m2 in 1 Std. Regen
Do, 18.04. 0:30 <0.05 l/m2 in 30 Min Schneeregen
Do, 18.04. 0:00 0.0 l/m2 in 1 Std. -
Ortszeit Stärke Spitze Richtung
km/h Bft. km/h Grad Sektor
Do, 18.04. 2:00 4 1 11 360° N
Mi, 17.04. 20:00 9 2 28 350° N
Mi, 17.04. 14:00 13 3 28 290° W
Mi, 17.04. 8:00 7 2 14 260° W
Mi, 17.04. 2:00 7 2 25 300° NW
Di, 16.04. 20:00 13 3 39 340° N
Di, 16.04. 14:00 22 4 61 330° NW
Di, 16.04. 8:00 22 4 47 200° S
Ortszeit Stärke Spitze Richtung
km/h Bft. km/h Grad Sektor
Do, 18.04. 3:00 7 2 11 310° NW
Do, 18.04. 2:50 7 2 - 310° NW
Do, 18.04. 2:40 7 2 - 310° NW
Do, 18.04. 2:30 4 1 7 300° NW
Do, 18.04. 2:20 4 1 - 300° NW
Do, 18.04. 2:10 6 1 - 330° NW
Do, 18.04. 2:00 4 1 7 360° N
Do, 18.04. 1:30 4 1 7 340° N
Do, 18.04. 1:00 6 1 7 350° N
Do, 18.04. 0:30 4 1 7 300° NW
Do, 18.04. 0:00 4 1 11 340° N
Ortszeit Untergrenze Bedeckung Gattung
total tief tief mittel hoch
Do, 18.04. 2:00 1500 m 6/8 6/8 - - -
Mi, 17.04. 20:00 1800 m 8/8 7/8 - - -
Mi, 17.04. 14:00 930 m 8/8 8/8 - - -
Mi, 17.04. 8:00 690 m 7/8 7/8 - - -
Mi, 17.04. 2:00 7200 m 2/8 0/8 - - -
Di, 16.04. 20:00 1020 m 7/8 7/8 - - -
Di, 16.04. 14:00 510 m 8/8 8/8 - - -
Di, 16.04. 8:00 360 m 7/8 7/8 - - -
Ortszeit Bedeckungsgrad in Achtel und Wolkenuntergrenze
Do, 18.04. 3:00 8(1500m)
Do, 18.04. 2:50 8(1500m)
Do, 18.04. 2:40 7
Do, 18.04. 2:30 2(1170m) 6(1410m) 7(1500m)
Do, 18.04. 2:20 2(1170m) 6(1410m) 7(1500m)
Do, 18.04. 2:10 7
Do, 18.04. 2:00 3(1500m) 6(1800m) 6(2400m)
Do, 18.04. 1:30 1(930m) 3(1200m)
Do, 18.04. 1:00 4(930m) 7(1500m) 8(2100m)
Do, 18.04. 0:30 5(960m) 5(1260m) 7(2100m)
Do, 18.04. 0:00 1(1050m) 7(2100m)
Ortszeit Luftdruck NN (hPa) Tendenz (hPa in 3 Std.)
Do, 18.04. 2:00 1015 + 1,6
Mi, 17.04. 20:00 1011 + 0,2
Mi, 17.04. 14:00 1011 - 0,3
Mi, 17.04. 8:00 1011 + 0,4
Mi, 17.04. 2:00 1010 + 1,0
Di, 16.04. 20:00 1007 + 2,2
Di, 16.04. 14:00 1002 + 5,8
Di, 16.04. 8:00 998 - 1,8
Ortszeit Luftdruck NN (hPa) Tendenz (hPa in 3 Std.)
Do, 18.04. 3:00 1015 + 1,3
Do, 18.04. 2:50 1015 keine Meldung
Do, 18.04. 2:40 1015 keine Meldung
Do, 18.04. 2:30 1015 + 1,4
Do, 18.04. 2:20 1015 keine Meldung
Do, 18.04. 2:10 1015 keine Meldung
Do, 18.04. 2:00 1015 + 1,6
Do, 18.04. 1:30 1014 + 1,6
Do, 18.04. 1:00 1014 + 1,6
Do, 18.04. 0:30 1014 + 1,4
Do, 18.04. 0:00 1013 + 1,5
Ortszeit Schneehöhe (cm)
Do, 18.04. 2:00 0
Mi, 17.04. 20:00 0
Mi, 17.04. 14:00 0
Mi, 17.04. 8:00 0
Mi, 17.04. 2:00 0
Di, 16.04. 20:00 0
Di, 16.04. 14:00 0
Di, 16.04. 8:00 0
Ortszeit Schneehöhe (cm)
Do, 18.04. 3:00 0
Do, 18.04. 2:50 0
Do, 18.04. 2:40 -
Do, 18.04. 2:30 0
Do, 18.04. 2:20 0
Do, 18.04. 2:10 -
Do, 18.04. 2:00 0
Do, 18.04. 1:30 0
Do, 18.04. 1:00 0
Do, 18.04. 0:30 0
Do, 18.04. 0:00 0
Link zu dieser Seite / Seite empfehlen

Das Wetter in ...